Time;durP1;ratioP1;P1;durP2;ratioP2;P2;SDS_P1;SDS_P2;PMS_P1;PMS_P2;Temp;Humidity;BMP_temperature;BMP_pressure;BME280_temperature;BME280_humidity;BME280_pressure;Samples;Min_cycle;Max_cycle;Signal;HPM_P1;HPM_P2
2020/12/03 00:03:38;;;;;;;23.20;16.30;;;2.90;41.00;;;;;;10374149;28;20230;-69
2020/12/03 00:08:46;;;;;;;20.77;16.47;;;2.90;41.00;;;;;;10370525;28;20222;-69
2020/12/03 00:13:48;;;;;;;19.97;15.87;;;3.00;41.10;;;;;;10364985;28;20226;-69
2020/12/03 00:18:50;;;;;;;20.17;15.77;;;2.90;41.00;;;;;;10378482;28;20230;-69
2020/12/03 00:23:53;;;;;;;20.87;16.60;;;2.90;41.00;;;;;;10392657;28;20815;-69
2020/12/03 00:28:56;;;;;;;22.07;17.80;;;3.10;41.20;;;;;;10367347;28;20226;-69
2020/12/03 00:33:59;;;;;;;21.77;17.47;;;2.90;41.00;;;;;;10367015;28;20231;-69
2020/12/03 00:39:04;;;;;;;22.77;17.63;;;2.90;41.00;;;;;;10366773;28;20225;-69
2020/12/03 00:44:07;;;;;;;21.43;17.40;;;2.90;41.00;;;;;;10376714;28;20222;-69
2020/12/03 00:49:09;;;;;;;24.33;17.87;;;2.90;41.00;;;;;;10375243;28;20221;-69
2020/12/03 00:54:12;;;;;;;24.80;18.37;;;2.70;41.00;;;;;;10386324;28;20234;-69
2020/12/03 00:59:14;;;;;;;24.00;18.07;;;2.70;41.00;;;;;;10364539;28;20225;-69
2020/12/03 01:04:16;;;;;;;23.53;17.70;;;2.70;41.10;;;;;;10373336;28;20248;-69
2020/12/03 01:09:19;;;;;;;24.10;18.13;;;2.80;41.30;;;;;;10372267;28;20236;-69
2020/12/03 01:14:21;;;;;;;23.77;18.60;;;2.70;41.30;;;;;;10376326;28;20236;-69
2020/12/03 01:19:24;;;;;;;23.77;17.53;;;2.60;41.30;;;;;;10366837;28;20317;-69
2020/12/03 01:24:28;;;;;;;22.83;17.33;;;2.70;41.60;;;;;;10375275;28;20233;-69
2020/12/03 01:29:32;;;;;;;26.70;18.97;;;2.70;41.40;;;;;;10380214;28;20234;-69
2020/12/03 01:34:34;;;;;;;24.40;17.30;;;2.70;41.30;;;;;;10375121;28;20226;-69
2020/12/03 01:39:37;;;;;;;23.90;17.37;;;2.70;41.40;;;;;;10373372;28;20686;-69
2020/12/03 01:44:43;;;;;;;23.37;17.50;;;2.70;41.50;;;;;;10372313;28;20317;-69
2020/12/03 01:49:46;;;;;;;23.50;18.13;;;2.70;41.60;;;;;;10377566;28;20230;-69
2020/12/03 01:54:49;;;;;;;27.00;19.27;;;2.80;41.60;;;;;;10383392;28;20452;-69
2020/12/03 02:00:02;;;;;;;23.27;18.90;;;2.80;41.50;;;;;;10379406;28;20621;-69
2020/12/03 02:05:12;;;;;;;24.03;17.77;;;2.80;41.50;;;;;;10380216;28;20233;-69
2020/12/03 02:10:16;;;;;;;24.17;18.27;;;2.90;41.70;;;;;;10381836;28;20235;-69
2020/12/03 02:15:20;;;;;;;23.83;18.27;;;2.70;41.70;;;;;;10376318;28;20668;-69
2020/12/03 02:20:24;;;;;;;23.63;18.93;;;2.80;41.70;;;;;;10375393;28;20249;-69
2020/12/03 02:25:26;;;;;;;25.03;19.20;;;2.80;41.70;;;;;;10377893;28;20226;-69
2020/12/03 02:30:28;;;;;;;26.67;20.23;;;2.80;41.70;;;;;;10374848;28;20242;-69
2020/12/03 02:35:32;;;;;;;25.63;19.47;;;3.00;41.70;;;;;;10380314;28;20244;-69
2020/12/03 02:40:34;;;;;;;25.03;19.50;;;2.80;41.70;;;;;;10371781;28;20598;-69
2020/12/03 02:45:36;;;;;;;26.70;19.10;;;2.80;41.70;;;;;;10383773;28;20222;-69
2020/12/03 02:50:39;;;;;;;26.63;19.73;;;2.80;41.70;;;;;;10376165;28;20515;-69
2020/12/03 02:55:41;;;;;;;25.30;19.77;;;2.80;41.70;;;;;;10374651;28;20233;-69
2020/12/03 03:00:43;;;;;;;25.97;19.20;;;2.80;41.80;;;;;;10386386;22;20234;-69
2020/12/03 03:05:46;;;;;;;26.90;20.13;;;2.80;41.70;;;;;;10356272;28;20230;-69
2020/12/03 03:10:50;;;;;;;24.70;19.60;;;2.80;41.70;;;;;;10359100;28;20305;-69
2020/12/03 03:15:53;;;;;;;24.53;17.30;;;2.70;41.80;;;;;;10356157;28;20276;-69
2020/12/03 03:20:56;;;;;;;26.93;19.73;;;2.70;42.00;;;;;;10352545;28;20222;-69
2020/12/03 03:25:59;;;;;;;27.17;19.87;;;2.70;41.90;;;;;;10360051;28;20245;-69
2020/12/03 03:31:01;;;;;;;24.93;18.80;;;2.70;42.00;;;;;;10353432;28;20226;-69
2020/12/03 03:36:04;;;;;;;25.00;18.67;;;2.70;42.10;;;;;;10351037;28;20218;-69
2020/12/03 03:41:06;;;;;;;25.30;19.43;;;2.70;42.10;;;;;;10340976;28;20227;-70
2020/12/03 03:46:09;;;;;;;25.17;19.33;;;2.70;42.10;;;;;;10348943;28;20223;-70
2020/12/03 03:51:12;;;;;;;26.50;19.43;;;2.70;42.10;;;;;;10349229;28;20227;-69
2020/12/03 03:56:14;;;;;;;25.80;19.17;;;2.70;42.10;;;;;;10351830;28;20222;-69
2020/12/03 04:01:16;;;;;;;20.40;16.10;;;2.80;42.00;;;;;;10348981;28;20231;-69
2020/12/03 04:06:19;;;;;;;26.27;18.50;;;2.80;42.00;;;;;;10348756;28;20372;-69
2020/12/03 04:11:22;;;;;;;27.40;19.67;;;2.80;42.00;;;;;;10352552;28;20247;-69
2020/12/03 04:16:24;;;;;;;25.13;18.27;;;2.80;41.90;;;;;;10351429;28;20226;-69
2020/12/03 04:21:27;;;;;;;25.07;19.30;;;2.80;42.00;;;;;;10348634;28;20229;-69
2020/12/03 04:26:29;;;;;;;23.93;17.83;;;2.70;41.90;;;;;;10352883;28;20230;-69
2020/12/03 04:31:31;;;;;;;27.83;19.33;;;2.80;42.10;;;;;;10342672;28;20566;-69
2020/12/03 04:36:34;;;;;;;27.93;19.83;;;2.90;42.10;;;;;;10350754;28;20228;-69
2020/12/03 04:41:38;;;;;;;25.13;18.80;;;2.80;41.90;;;;;;10345828;28;20608;-69
2020/12/03 04:46:44;;;;;;;27.67;19.27;;;2.70;41.90;;;;;;10345774;28;20233;-71
2020/12/03 04:52:28;;;;;;;25.50;19.13;;;2.80;42.20;;;;;;10348626;28;20222;-71
2020/12/03 04:57:42;;;;;;;28.57;19.30;;;2.70;42.30;;;;;;10352612;28;20225;-69
2020/12/03 05:03:09;;;;;;;26.63;18.57;;;2.60;42.00;;;;;;10345310;28;20464;-69
2020/12/03 05:08:27;;;;;;;25.07;19.07;;;2.60;42.20;;;;;;10316022;28;20219;-69
2020/12/03 05:13:41;;;;;;;25.87;18.80;;;2.70;42.30;;;;;;10347484;28;20317;-69
2020/12/03 05:18:53;;;;;;;25.90;19.27;;;2.70;42.30;;;;;;10345041;28;20230;-69
2020/12/03 05:23:55;;;;;;;27.83;19.17;;;2.70;42.20;;;;;;10348864;28;20732;-71
2020/12/03 05:29:01;;;;;;;25.63;18.47;;;2.70;42.30;;;;;;10345424;28;20229;-69
2020/12/03 05:34:09;;;;;;;25.80;19.10;;;2.70;42.30;;;;;;10350468;28;20230;-69
2020/12/03 05:39:14;;;;;;;25.90;19.27;;;2.70;42.30;;;;;;10347373;28;20733;-69
2020/12/03 05:44:36;;;;;;;26.33;20.03;;;2.80;42.20;;;;;;10351506;28;20235;-69
2020/12/03 05:49:41;;;;;;;25.97;18.87;;;2.90;42.40;;;;;;10353950;28;20233;-69
2020/12/03 05:55:01;;;;;;;26.97;20.23;;;2.80;42.30;;;;;;10353917;28;20233;-69
2020/12/03 06:00:26;;;;;;;28.67;20.27;;;2.90;42.40;;;;;;10351030;28;20229;-69
2020/12/03 06:05:37;;;;;;;27.13;19.23;;;2.90;42.40;;;;;;10349848;28;20222;-69
2020/12/03 06:10:54;;;;;;;29.13;20.10;;;2.90;42.30;;;;;;10356127;28;20240;-69
2020/12/03 06:16:01;;;;;;;27.80;20.27;;;2.90;42.20;;;;;;10349045;28;20241;-69
2020/12/03 06:21:43;;;;;;;28.47;20.00;;;3.00;42.40;;;;;;10354641;28;20224;-69
2020/12/03 06:27:13;;;;;;;26.37;19.97;;;3.00;42.20;;;;;;10354147;28;20230;-69
2020/12/03 06:32:42;;;;;;;25.90;19.47;;;3.00;42.20;;;;;;10359779;28;20698;-69
2020/12/03 06:37:53;;;;;;;29.17;20.53;;;3.10;42.40;;;;;;10357136;28;20229;-71
2020/12/03 06:43:05;;;;;;;27.53;20.70;;;3.30;42.60;;;;;;10356892;28;20317;-69
2020/12/03 06:48:38;;;;;;;26.67;20.30;;;3.20;42.10;;;;;;10354600;28;20222;-68
2020/12/03 06:54:01;;;;;;;25.20;18.50;;;3.20;42.20;;;;;;10356063;28;20241;-70
2020/12/03 06:59:21;;;;;;;27.97;19.70;;;3.20;42.00;;;;;;10353401;28;20223;-69
2020/12/03 07:04:55;;;;;;;26.40;20.03;;;3.30;42.10;;;;;;10349423;28;20233;-69
2020/12/03 07:10:25;;;;;;;23.83;18.20;;;3.20;41.90;;;;;;10350214;28;20230;-70
2020/12/03 07:15:48;;;;;;;27.33;19.20;;;3.20;42.00;;;;;;10347060;28;20233;-71
2020/12/03 07:21:13;;;;;;;23.50;17.50;;;3.20;42.10;;;;;;10350713;28;20228;-71
2020/12/03 07:26:27;;;;;;;23.83;18.27;;;3.20;42.10;;;;;;10354168;28;20232;-71
2020/12/03 07:31:34;;;;;;;26.80;18.83;;;3.20;42.10;;;;;;10351875;28;20230;-72
2020/12/03 07:36:44;;;;;;;27.23;19.23;;;3.20;42.60;;;;;;10351542;28;20594;-72
2020/12/03 07:41:52;;;;;;;26.20;19.20;;;3.40;42.60;;;;;;10350503;28;20226;-72
2020/12/03 07:47:13;;;;;;;32.70;22.80;;;3.30;42.30;;;;;;10359036;28;20729;-72
2020/12/03 07:52:29;;;;;;;27.10;20.13;;;3.30;42.30;;;;;;10360481;28;20230;-71
2020/12/03 07:57:50;;;;;;;28.20;19.83;;;3.40;42.10;;;;;;10352850;28;20226;-72
2020/12/03 08:02:54;;;;;;;23.53;17.10;;;3.40;42.20;;;;;;10349609;28;20322;-71
2020/12/03 08:07:57;;;;;;;27.07;19.07;;;3.40;42.30;;;;;;10359849;28;20222;-72
2020/12/03 08:13:14;;;;;;;25.90;18.33;;;3.40;42.20;;;;;;10355000;28;20594;-72
2020/12/03 08:18:42;;;;;;;25.53;17.87;;;3.40;42.20;;;;;;10347519;28;20233;-72
2020/12/03 08:23:53;;;;;;;26.60;19.00;;;3.40;42.00;;;;;;10357038;28;20238;-72
2020/12/03 08:28:55;;;;;;;24.40;18.07;;;3.40;42.20;;;;;;10357265;28;20234;-72
2020/12/03 08:33:59;;;;;;;29.13;19.33;;;3.40;42.30;;;;;;10354389;28;20223;-72
2020/12/03 08:39:01;;;;;;;29.07;19.93;;;3.50;42.40;;;;;;10362086;28;20232;-72
2020/12/03 08:44:06;;;;;;;26.17;18.23;;;3.60;42.50;;;;;;10353029;28;20241;-71
2020/12/03 08:49:19;;;;;;;26.23;18.67;;;3.50;42.30;;;;;;10347489;28;20600;-72
2020/12/03 08:54:25;;;;;;;27.33;19.30;;;3.40;42.40;;;;;;10355526;28;20827;-72
2020/12/03 08:59:30;;;;;;;25.13;19.03;;;3.40;42.50;;;;;;10358023;28;20591;-72
2020/12/03 09:04:35;;;;;;;26.57;19.43;;;3.40;42.50;;;;;;10349447;28;20230;-70
2020/12/03 09:09:38;;;;;;;27.67;20.13;;;3.60;42.70;;;;;;10352048;28;20241;-70
2020/12/03 09:14:42;;;;;;;26.83;19.20;;;3.40;42.60;;;;;;10354644;28;20230;-70
2020/12/03 09:19:45;;;;;;;26.50;19.03;;;3.50;42.60;;;;;;10352642;28;20232;-70
2020/12/03 09:24:48;;;;;;;29.93;19.93;;;3.50;42.50;;;;;;10354006;28;20226;-70
2020/12/03 09:29:51;;;;;;;29.03;20.60;;;3.60;42.60;;;;;;10356498;28;20640;-72
2020/12/03 09:34:56;;;;;;;28.57;19.07;;;3.60;42.60;;;;;;10352249;28;20757;-72
2020/12/03 09:40:01;;;;;;;28.77;19.77;;;3.60;42.50;;;;;;10354470;28;20232;-71
2020/12/03 09:45:08;;;;;;;27.97;20.00;;;3.70;42.70;;;;;;10361055;28;20228;-71
2020/12/03 09:50:13;;;;;;;28.07;19.80;;;3.70;42.70;;;;;;10348545;28;20226;-70
2020/12/03 09:55:16;;;;;;;25.13;18.13;;;3.80;42.60;;;;;;10357810;28;20226;-70
2020/12/03 10:00:22;;;;;;;26.77;19.23;;;3.90;42.70;;;;;;10355110;28;20231;-70
2020/12/03 10:05:38;;;;;;;25.80;17.90;;;3.90;42.40;;;;;;10353763;28;20226;-70
2020/12/03 10:10:47;;;;;;;26.50;18.17;;;4.00;42.70;;;;;;10349628;28;20619;-70
2020/12/03 10:15:59;;;;;;;25.43;19.53;;;4.00;42.70;;;;;;10351595;28;20219;-72
2020/12/03 10:21:02;;;;;;;26.27;19.43;;;4.10;42.70;;;;;;10351532;28;20702;-70
2020/12/03 10:26:16;;;;;;;26.17;19.17;;;4.20;42.70;;;;;;10344703;28;20697;-72
2020/12/03 10:31:20;;;;;;;23.67;17.40;;;4.20;42.40;;;;;;10345830;28;20230;-70
2020/12/03 10:36:36;;;;;;;26.70;19.07;;;4.20;42.50;;;;;;10351154;28;20635;-70
2020/12/03 10:41:41;;;;;;;27.17;19.67;;;4.30;42.70;;;;;;10341086;28;20235;-72
2020/12/03 10:46:48;;;;;;;26.33;19.10;;;4.40;42.60;;;;;;10349236;28;20233;-70
2020/12/03 10:51:52;;;;;;;25.67;19.33;;;4.40;42.60;;;;;;10347361;28;20734;-70
2020/12/03 10:56:55;;;;;;;24.33;17.87;;;4.40;43.10;;;;;;10354725;28;20541;-70
2020/12/03 11:02:00;;;;;;;25.07;18.37;;;4.50;43.10;;;;;;10349209;28;20597;-72
2020/12/03 11:07:12;;;;;;;24.87;17.77;;;4.60;42.90;;;;;;10347486;28;20218;-71
2020/12/03 11:12:14;;;;;;;25.70;18.23;;;4.80;42.60;;;;;;10345281;28;20238;-72
2020/12/03 11:17:44;;;;;;;24.83;17.40;;;4.90;42.60;;;;;;10350531;28;20633;-72
2020/12/03 11:23:09;;;;;;;23.53;17.80;;;5.10;42.80;;;;;;10345938;28;20233;-71
2020/12/03 11:28:27;;;;;;;26.77;19.23;;;5.20;42.70;;;;;;10349816;28;20286;-72
2020/12/03 11:33:31;;;;;;;26.93;19.50;;;5.30;42.30;;;;;;10346814;28;20234;-72
2020/12/03 11:38:34;;;;;;;25.33;19.30;;;5.30;42.40;;;;;;10343398;28;20305;-72
2020/12/03 11:43:52;;;;;;;25.10;18.57;;;5.40;42.30;;;;;;10346430;28;20233;-72
2020/12/03 11:48:56;;;;;;;24.40;18.33;;;5.40;42.40;;;;;;10342480;28;20218;-72
2020/12/03 11:54:01;;;;;;;21.77;17.03;;;5.40;42.30;;;;;;10351877;28;20230;-72
2020/12/03 11:59:16;;;;;;;24.57;18.87;;;5.50;42.00;;;;;;10345728;28;20221;-72
2020/12/03 12:04:24;;;;;;;25.67;18.07;;;5.50;41.90;;;;;;10337409;28;20219;-71
2020/12/03 12:09:32;;;;;;;23.77;17.87;;;5.60;42.30;;;;;;10347485;28;20233;-70
2020/12/03 12:14:34;;;;;;;25.33;18.93;;;5.50;42.00;;;;;;10350561;28;20241;-70
2020/12/03 12:19:37;;;;;;;24.93;18.67;;;5.60;42.20;;;;;;10345189;28;20238;-70
2020/12/03 12:24:42;;;;;;;23.73;18.13;;;5.60;42.40;;;;;;10347607;28;20329;-69
2020/12/03 12:29:44;;;;;;;27.47;19.87;;;5.70;42.30;;;;;;10347840;28;20221;-70
2020/12/03 12:34:46;;;;;;;24.83;19.83;;;5.80;42.40;;;;;;10342967;28;20249;-70
2020/12/03 12:39:49;;;;;;;23.40;18.33;;;5.90;42.40;;;;;;10350305;28;20301;-70
2020/12/03 12:44:52;;;;;;;23.23;17.77;;;6.00;41.90;;;;;;10348558;28;20652;-69
2020/12/03 12:49:54;;;;;;;21.90;17.63;;;6.10;42.10;;;;;;10345611;28;20227;-71
2020/12/03 12:54:57;;;;;;;24.00;18.47;;;6.10;41.80;;;;;;10350924;28;20607;-71
2020/12/03 12:59:59;;;;;;;22.93;17.90;;;6.10;41.50;;;;;;10343661;28;20620;-71
2020/12/03 13:05:02;;;;;;;22.13;16.93;;;6.10;41.50;;;;;;10341054;28;20222;-70
2020/12/03 13:10:05;;;;;;;22.80;18.33;;;6.10;41.30;;;;;;10346305;28;20230;-70
2020/12/03 13:15:07;;;;;;;20.03;16.17;;;6.10;41.40;;;;;;10336199;28;20613;-71
2020/12/03 13:20:09;;;;;;;22.33;17.67;;;6.10;41.40;;;;;;10343173;28;20265;-71
2020/12/03 13:25:12;;;;;;;21.13;16.93;;;6.10;41.50;;;;;;10351810;28;20640;-71
2020/12/03 13:30:15;;;;;;;21.10;16.77;;;6.10;41.10;;;;;;10347911;28;20333;-71
2020/12/03 13:35:17;;;;;;;21.77;16.57;;;6.10;41.10;;;;;;10341668;28;20231;-70
2020/12/03 13:40:21;;;;;;;21.13;16.90;;;6.10;41.00;;;;;;10345692;28;20968;-70
2020/12/03 13:45:23;;;;;;;26.23;18.10;;;6.10;40.60;;;;;;10343612;28;20301;-70
2020/12/03 13:50:25;;;;;;;17.40;14.27;;;6.10;40.90;;;;;;10345950;28;20230;-69
2020/12/03 13:55:28;;;;;;;17.07;13.63;;;6.10;41.00;;;;;;10352863;28;20237;-70
2020/12/03 14:00:30;;;;;;;20.23;17.47;;;6.10;41.10;;;;;;10346610;28;20222;-70
2020/12/03 14:05:33;;;;;;;18.53;15.20;;;6.20;41.10;;;;;;10348075;28;20227;-70
2020/12/03 14:10:36;;;;;;;18.97;14.30;;;6.20;40.80;;;;;;10351452;28;20761;-70
2020/12/03 14:15:39;;;;;;;20.07;14.37;;;6.20;40.70;;;;;;10352072;28;20601;-70
2020/12/03 14:20:42;;;;;;;17.90;14.83;;;6.20;40.80;;;;;;10350081;28;20236;-70
2020/12/03 14:25:45;;;;;;;16.10;13.93;;;6.20;40.60;;;;;;10356184;28;20248;-70
2020/12/03 14:30:47;;;;;;;15.73;13.80;;;6.20;40.60;;;;;;10346465;28;20702;-70
2020/12/03 14:35:50;;;;;;;17.43;13.93;;;6.20;40.60;;;;;;10352079;28;20232;-70
2020/12/03 14:40:53;;;;;;;17.70;15.23;;;6.20;40.60;;;;;;10345934;28;20763;-70
2020/12/03 14:45:55;;;;;;;16.10;14.00;;;6.20;40.50;;;;;;10348860;28;20433;-70
2020/12/03 14:50:57;;;;;;;16.83;14.87;;;6.20;40.70;;;;;;10358968;28;20691;-70
2020/12/03 14:56:03;;;;;;;15.20;13.43;;;6.20;40.70;;;;;;10353224;28;23694;-70
2020/12/03 15:01:06;;;;;;;14.37;12.87;;;6.20;40.20;;;;;;10350363;28;20617;-70
2020/12/03 15:06:09;;;;;;;17.90;14.17;;;6.20;40.30;;;;;;10345175;28;20595;-72
2020/12/03 15:11:15;;;;;;;14.40;12.87;;;6.20;40.30;;;;;;10350017;28;20223;-71
2020/12/03 15:16:17;;;;;;;16.07;14.37;;;6.00;40.00;;;;;;10348388;28;20285;-71
2020/12/03 15:21:19;;;;;;;14.90;13.30;;;6.10;40.20;;;;;;10350127;28;20239;-72
2020/12/03 15:26:23;;;;;;;13.20;11.30;;;6.10;40.00;;;;;;10350845;28;20253;-72
2020/12/03 15:31:25;;;;;;;14.60;12.53;;;6.00;40.00;;;;;;10345673;28;20231;-72
2020/12/03 15:36:28;;;;;;;13.90;12.43;;;6.00;40.20;;;;;;10349674;28;20222;-73
2020/12/03 15:41:31;;;;;;;25.47;20.00;;;5.90;40.30;;;;;;10349729;28;20313;-72
2020/12/03 15:46:33;;;;;;;20.10;16.63;;;5.90;40.00;;;;;;10348959;28;20478;-73
2020/12/03 15:51:35;;;;;;;28.87;21.10;;;5.90;40.90;;;;;;10345021;28;20234;-72
2020/12/03 15:56:40;;;;;;;23.13;18.80;;;5.90;40.20;;;;;;10353845;28;20227;-72
2020/12/03 16:01:45;;;;;;;18.87;15.77;;;5.90;39.90;;;;;;10346500;28;20230;-72
2020/12/03 16:06:47;;;;;;;16.03;13.50;;;5.80;40.00;;;;;;10343065;28;20230;-72
2020/12/03 16:11:51;;;;;;;25.10;20.07;;;5.80;40.00;;;;;;10346406;28;20230;-72
2020/12/03 16:16:53;;;;;;;27.63;20.37;;;5.70;39.80;;;;;;10348899;28;20305;-73
2020/12/03 16:21:55;;;;;;;23.47;19.93;;;5.70;39.90;;;;;;10342274;28;20604;-73
2020/12/03 16:26:58;;;;;;;23.77;18.93;;;5.70;39.80;;;;;;10355075;28;20534;-73
2020/12/03 16:32:05;;;;;;;20.03;15.80;;;5.60;39.60;;;;;;10346319;28;20234;-72
2020/12/03 16:37:07;;;;;;;19.43;16.17;;;5.60;39.60;;;;;;10347392;28;20236;-72
2020/12/03 16:42:12;;;;;;;21.50;16.80;;;5.50;39.80;;;;;;10344599;28;20241;-73
2020/12/03 16:47:14;;;;;;;19.53;15.57;;;5.50;39.60;;;;;;10347734;28;20277;-73
2020/12/03 16:52:16;;;;;;;14.77;12.73;;;5.40;39.50;;;;;;10346796;28;20248;-73
2020/12/03 16:57:19;;;;;;;19.07;15.07;;;5.30;39.40;;;;;;10351680;28;20256;-73
2020/12/03 17:02:23;;;;;;;23.63;16.23;;;5.20;39.30;;;;;;10346072;28;20604;-73
2020/12/03 17:07:26;;;;;;;19.80;16.50;;;5.10;39.30;;;;;;10346863;28;20358;-73
2020/12/03 17:12:29;;;;;;;20.83;16.37;;;5.00;39.30;;;;;;10350698;28;20238;-73
2020/12/03 17:17:31;;;;;;;20.63;17.17;;;4.90;39.20;;;;;;10346734;28;20222;-72
2020/12/03 17:22:33;;;;;;;17.37;14.60;;;4.80;39.40;;;;;;10349266;28;20229;-72
2020/12/03 17:27:37;;;;;;;18.67;16.13;;;4.70;39.40;;;;;;10350205;28;20637;-72
2020/12/03 17:32:39;;;;;;;21.43;17.33;;;4.60;39.50;;;;;;10358048;28;20769;-72
2020/12/03 17:37:41;;;;;;;22.50;18.60;;;4.60;39.60;;;;;;10358423;28;20227;-72
2020/12/03 17:42:45;;;;;;;21.80;19.43;;;4.60;39.60;;;;;;10350076;28;20227;-72
2020/12/03 17:47:47;;;;;;;33.13;26.80;;;4.50;39.40;;;;;;10356729;28;20222;-72
2020/12/03 17:52:49;;;;;;;27.00;21.17;;;4.50;39.30;;;;;;10355866;28;20239;-72
2020/12/03 17:57:52;;;;;;;24.90;20.77;;;4.40;39.20;;;;;;10355613;28;20875;-72
2020/12/03 18:02:54;;;;;;;24.70;20.93;;;4.30;39.20;;;;;;10355892;28;20223;-72
2020/12/03 18:07:56;;;;;;;29.50;23.17;;;4.30;39.30;;;;;;10353195;28;20237;-72
2020/12/03 18:12:59;;;;;;;26.80;22.87;;;4.20;39.40;;;;;;10357417;28;20238;-72
2020/12/03 18:18:02;;;;;;;28.43;20.67;;;4.20;39.40;;;;;;10342022;28;20683;-72
2020/12/03 18:23:04;;;;;;;28.47;22.23;;;4.20;39.30;;;;;;10352376;28;20230;-72
2020/12/03 18:28:07;;;;;;;21.00;16.97;;;4.20;39.30;;;;;;10344393;28;20237;-72
2020/12/03 18:33:10;;;;;;;21.13;16.63;;;4.10;39.30;;;;;;10348253;28;20231;-72
2020/12/03 18:38:14;;;;;;;19.40;16.13;;;4.10;39.50;;;;;;10357826;28;20261;-72
2020/12/03 18:43:18;;;;;;;20.50;15.63;;;4.00;39.60;;;;;;10350776;28;20736;-72
2020/12/03 18:48:20;;;;;;;20.43;16.10;;;4.00;39.70;;;;;;10355888;28;20231;-72
2020/12/03 18:53:23;;;;;;;18.83;16.63;;;4.10;39.90;;;;;;10355851;28;20317;-72
2020/12/03 18:58:26;;;;;;;17.00;14.27;;;4.00;39.80;;;;;;10347983;28;20233;-72
2020/12/03 19:03:28;;;;;;;20.43;16.90;;;4.00;39.80;;;;;;10356404;28;20577;-72
2020/12/03 19:08:33;;;;;;;19.83;16.37;;;4.00;39.70;;;;;;10352037;28;20225;-72
2020/12/03 19:13:36;;;;;;;18.97;15.63;;;4.00;39.70;;;;;;10345952;28;20234;-72
2020/12/03 19:18:39;;;;;;;23.63;17.40;;;4.00;39.70;;;;;;10352499;28;20722;-72
2020/12/03 19:23:42;;;;;;;19.50;16.10;;;4.00;39.60;;;;;;10354423;28;20310;-72
2020/12/03 19:28:45;;;;;;;21.73;17.43;;;3.90;39.50;;;;;;10353956;28;20703;-72
2020/12/03 19:33:48;;;;;;;19.23;15.40;;;3.90;39.50;;;;;;10355903;28;20889;-72
2020/12/03 19:38:50;;;;;;;20.10;15.47;;;3.90;39.50;;;;;;10341822;28;20226;-72
2020/12/03 19:43:53;;;;;;;20.20;14.63;;;3.80;39.50;;;;;;10348152;28;20226;-72
2020/12/03 19:48:56;;;;;;;17.90;14.83;;;3.80;39.00;;;;;;10339929;28;20225;-72
2020/12/03 19:53:59;;;;;;;15.30;13.07;;;3.70;38.90;;;;;;10338485;28;20226;-72
2020/12/03 19:59:02;;;;;;;17.30;14.13;;;3.60;38.70;;;;;;10349214;28;20651;-72
2020/12/03 20:04:04;;;;;;;17.03;13.43;;;3.50;38.80;;;;;;10334785;28;20237;-73
2020/12/03 20:09:06;;;;;;;16.77;13.63;;;3.50;38.80;;;;;;10338358;28;20222;-72
2020/12/03 20:14:09;;;;;;;20.63;15.80;;;3.40;38.90;;;;;;10338785;28;20230;-72
2020/12/03 20:19:12;;;;;;;17.53;14.50;;;3.30;38.70;;;;;;10336502;28;20241;-72
2020/12/03 20:24:14;;;;;;;19.37;15.03;;;3.20;38.70;;;;;;10346464;28;20226;-72
2020/12/03 20:29:17;;;;;;;14.77;12.10;;;3.20;38.80;;;;;;10346838;28;20218;-72
2020/12/03 20:34:34;;;;;;;18.07;14.63;;;3.00;38.90;;;;;;10348280;28;20236;-73
2020/12/03 20:39:36;;;;;;;18.90;15.00;;;3.00;39.00;;;;;;10334743;28;20702;-72
2020/12/03 20:44:39;;;;;;;17.13;13.73;;;3.00;39.10;;;;;;10338819;28;20717;-71
2020/12/03 20:49:42;;;;;;;19.10;14.83;;;3.00;39.10;;;;;;10345508;28;20222;-73
2020/12/03 20:54:44;;;;;;;19.60;15.30;;;2.90;39.10;;;;;;10341223;28;20265;-72
2020/12/03 20:59:47;;;;;;;17.97;13.97;;;2.90;39.00;;;;;;10347178;28;20225;-72
2020/12/03 21:04:49;;;;;;;16.63;13.60;;;3.00;39.00;;;;;;10344626;28;20222;-71
2020/12/03 21:09:51;;;;;;;19.40;14.87;;;2.90;39.00;;;;;;10354094;28;20229;-71
2020/12/03 21:14:54;;;;;;;18.07;12.87;;;2.80;38.70;;;;;;10353337;28;20237;-71
2020/12/03 21:19:57;;;;;;;17.13;14.00;;;2.80;38.60;;;;;;10348812;28;20237;-71
2020/12/03 21:24:59;;;;;;;16.23;12.67;;;2.70;38.80;;;;;;10353153;28;20214;-71
2020/12/03 21:30:02;;;;;;;17.03;13.70;;;2.70;38.80;;;;;;10354291;28;20226;-71
2020/12/03 21:35:04;;;;;;;15.27;12.03;;;2.70;38.70;;;;;;10344198;28;20231;-71
2020/12/03 21:40:07;;;;;;;16.07;13.53;;;2.60;38.70;;;;;;10358932;28;20226;-71
2020/12/03 21:45:10;;;;;;;19.70;14.10;;;2.50;38.80;;;;;;10356425;28;20234;-71
2020/12/03 21:50:13;;;;;;;14.73;12.83;;;2.50;38.60;;;;;;10357172;28;20241;-71
2020/12/03 21:55:15;;;;;;;16.60;13.60;;;2.40;38.80;;;;;;10367455;28;20234;-71
2020/12/03 22:00:18;;;;;;;17.00;13.53;;;2.40;38.90;;;;;;10366081;28;20230;-71
2020/12/03 22:05:20;;;;;;;16.67;12.90;;;2.40;39.00;;;;;;10366135;28;20230;-71
2020/12/03 22:10:22;;;;;;;16.30;13.20;;;2.30;39.00;;;;;;10359466;28;20237;-71
2020/12/03 22:15:26;;;;;;;18.43;13.40;;;2.30;39.00;;;;;;10361159;28;20223;-70
2020/12/03 22:20:28;;;;;;;16.07;12.43;;;2.30;38.90;;;;;;10359207;28;20230;-71
2020/12/03 22:25:30;;;;;;;16.90;12.97;;;2.30;39.00;;;;;;10362531;28;20230;-71
2020/12/03 22:30:33;;;;;;;15.20;12.43;;;2.20;39.10;;;;;;10348263;28;20346;-71
2020/12/03 22:35:35;;;;;;;13.63;11.13;;;2.20;39.00;;;;;;10351121;28;20230;-71
2020/12/03 22:40:37;;;;;;;19.33;12.70;;;2.20;39.10;;;;;;10352341;28;20234;-71
2020/12/03 22:45:40;;;;;;;15.17;12.83;;;2.10;39.00;;;;;;10357891;28;20604;-71
2020/12/03 22:50:43;;;;;;;13.90;11.83;;;2.20;39.20;;;;;;10354604;28;20238;-71
2020/12/03 22:55:45;;;;;;;17.43;13.13;;;2.10;39.30;;;;;;10353058;28;20428;-71
2020/12/03 23:00:48;;;;;;;22.10;16.20;;;2.10;39.20;;;;;;10351091;28;20236;-71
2020/12/03 23:05:51;;;;;;;17.10;12.57;;;2.20;39.20;;;;;;10351083;28;20223;-71
2020/12/03 23:10:53;;;;;;;16.33;13.43;;;2.20;39.30;;;;;;10351035;28;20674;-71
2020/12/03 23:15:56;;;;;;;17.13;12.80;;;2.20;39.20;;;;;;10349676;28;20222;-71
2020/12/03 23:20:58;;;;;;;18.30;13.10;;;2.10;39.10;;;;;;10349820;28;20722;-71
2020/12/03 23:26:01;;;;;;;15.00;11.90;;;2.00;38.90;;;;;;10344147;28;20214;-71
2020/12/03 23:31:04;;;;;;;16.37;11.93;;;2.00;39.00;;;;;;10346595;28;20226;-71
2020/12/03 23:36:06;;;;;;;16.70;12.47;;;1.90;38.80;;;;;;10348470;28;20229;-71
2020/12/03 23:41:08;;;;;;;15.63;12.20;;;1.90;38.80;;;;;;10344980;28;20327;-71
2020/12/03 23:46:11;;;;;;;14.93;11.27;;;1.90;38.80;;;;;;10349559;28;20226;-71
2020/12/03 23:51:17;;;;;;;16.13;11.57;;;1.80;38.90;;;;;;10351565;28;20253;-71
2020/12/03 23:56:19;;;;;;;17.17;12.43;;;1.80;38.90;;;;;;10358877;28;20234;-72
